Time;durP1;ratioP1;P1;durP2;ratioP2;P2;SDS_P1;SDS_P2;PMS_P1;PMS_P2;Temp;Humidity;BMP_temperature;BMP_pressure;BME280_temperature;BME280_humidity;BME280_pressure;Samples;Min_cycle;Max_cycle;Signal;HPM_P1;HPM_P2
2022/12/19 00:01:15;;;;;;;18.85;8.07;;;1.20;80.40;;;;;;5119792;22;20883;-73
2022/12/19 00:03:44;;;;;;;26.92;11.13;;;1.20;80.70;;;;;;5088222;28;20100;-73
2022/12/19 00:06:11;;;;;;;28.70;11.95;;;1.20;80.60;;;;;;5087247;28;20166;-73
2022/12/19 00:08:40;;;;;;;26.13;9.38;;;1.20;80.60;;;;;;5117904;22;20121;-72
2022/12/19 00:11:07;;;;;;;25.07;11.37;;;1.20;80.70;;;;;;5062447;28;20064;-73
2022/12/19 00:13:35;;;;;;;26.52;11.73;;;1.20;80.90;;;;;;5059737;28;20236;-74
2022/12/19 00:16:05;;;;;;;27.60;11.50;;;1.20;81.10;;;;;;5070470;28;20152;-73
2022/12/19 00:18:33;;;;;;;23.00;9.52;;;1.20;81.10;;;;;;5070392;28;20518;-73
2022/12/19 00:21:04;;;;;;;29.33;12.48;;;1.20;81.40;;;;;;5070573;28;20542;-73
2022/12/19 00:23:34;;;;;;;28.87;12.33;;;1.20;81.30;;;;;;5068530;28;20061;-73
2022/12/19 00:26:10;;;;;;;26.50;10.95;;;1.30;81.20;;;;;;5055855;28;20309;-73
2022/12/19 00:28:40;;;;;;;28.23;10.68;;;1.30;81.50;;;;;;5050577;28;20986;-73
2022/12/19 00:31:10;;;;;;;28.15;12.40;;;1.30;81.50;;;;;;5037027;28;20799;-73
2022/12/19 00:33:38;;;;;;;27.40;12.68;;;1.30;81.60;;;;;;5041043;28;21155;-73
2022/12/19 00:36:11;;;;;;;27.03;10.47;;;1.30;81.50;;;;;;5049894;28;20053;-73
2022/12/19 00:38:39;;;;;;;26.45;10.32;;;1.40;81.50;;;;;;5060359;28;20269;-73
2022/12/19 00:41:09;;;;;;;30.27;12.85;;;1.40;81.60;;;;;;5045172;28;20128;-73
2022/12/19 00:43:37;;;;;;;25.05;10.93;;;1.40;81.50;;;;;;5051505;28;20049;-73
2022/12/19 00:46:04;;;;;;;26.30;11.15;;;1.40;81.80;;;;;;5044041;28;20132;-73
2022/12/19 00:48:33;;;;;;;26.40;11.63;;;1.40;81.80;;;;;;5056752;28;20049;-73
2022/12/19 00:51:04;;;;;;;26.92;12.60;;;1.40;81.90;;;;;;5041412;28;20280;-73
2022/12/19 00:53:33;;;;;;;23.65;9.57;;;1.40;81.70;;;;;;5056712;28;20434;-73
2022/12/19 00:56:16;;;;;;;27.90;11.77;;;1.40;81.80;;;;;;5061298;28;20167;-73
2022/12/19 00:58:44;;;;;;;29.80;11.48;;;1.50;81.70;;;;;;5128081;22;20142;-73
2022/12/19 01:01:14;;;;;;;29.67;13.00;;;1.50;81.80;;;;;;5051224;28;20484;-73
2022/12/19 01:03:41;;;;;;;26.50;11.43;;;1.50;82.10;;;;;;5062657;28;20377;-72
2022/12/19 01:06:08;;;;;;;28.50;12.13;;;1.50;81.80;;;;;;5045360;28;20051;-72
2022/12/19 01:08:37;;;;;;;23.13;9.82;;;1.60;81.90;;;;;;5068894;28;20049;-72
2022/12/19 01:11:05;;;;;;;29.70;11.77;;;1.60;82.00;;;;;;5063828;28;20057;-73
2022/12/19 01:13:33;;;;;;;29.50;11.67;;;1.60;82.00;;;;;;5067319;28;20052;-73
2022/12/19 01:16:03;;;;;;;21.38;9.00;;;1.60;82.00;;;;;;5068134;28;20257;-73
2022/12/19 01:18:30;;;;;;;27.08;10.68;;;1.60;82.10;;;;;;5046444;28;20057;-73
2022/12/19 01:21:00;;;;;;;28.15;11.80;;;1.60;82.10;;;;;;5068881;28;20096;-73
2022/12/19 01:23:28;;;;;;;24.15;8.88;;;1.70;82.20;;;;;;5061908;28;20131;-73
2022/12/19 01:25:57;;;;;;;29.47;11.40;;;1.70;82.30;;;;;;5067148;28;20550;-73
2022/12/19 01:28:25;;;;;;;23.10;10.27;;;1.70;82.30;;;;;;5067349;28;20272;-73
2022/12/19 01:30:55;;;;;;;20.50;9.27;;;1.70;82.40;;;;;;5063440;28;20143;-73
2022/12/19 01:33:22;;;;;;;26.90;11.70;;;1.70;82.30;;;;;;5064323;28;20060;-73
2022/12/19 01:35:49;;;;;;;21.80;8.73;;;1.70;82.20;;;;;;5064234;28;20052;-73
2022/12/19 01:38:18;;;;;;;23.57;10.10;;;1.70;82.30;;;;;;5058225;28;20049;-73
2022/12/19 01:40:53;;;;;;;29.95;12.35;;;1.70;82.30;;;;;;5060526;28;20284;-72
2022/12/19 01:43:23;;;;;;;24.30;10.10;;;1.80;82.20;;;;;;5060566;28;20103;-72
2022/12/19 01:45:53;;;;;;;33.15;13.77;;;1.80;82.40;;;;;;5059228;28;20433;-73
2022/12/19 01:48:22;;;;;;;29.25;12.77;;;1.80;82.60;;;;;;5061691;28;20053;-73
2022/12/19 01:50:54;;;;;;;25.03;11.23;;;1.80;82.50;;;;;;5048893;28;20053;-72
2022/12/19 01:53:25;;;;;;;27.40;11.18;;;1.80;82.50;;;;;;5039482;28;20249;-73
2022/12/19 01:55:52;;;;;;;27.55;11.48;;;1.90;82.60;;;;;;5050499;28;20136;-73
2022/12/19 01:58:19;;;;;;;30.30;11.75;;;1.90;82.60;;;;;;5059372;28;20107;-73
2022/12/19 02:00:48;;;;;;;29.85;12.60;;;1.90;82.80;;;;;;5063094;28;20061;-73
2022/12/19 02:03:21;;;;;;;26.40;11.13;;;1.90;82.70;;;;;;5045613;28;20136;-73
2022/12/19 02:05:49;;;;;;;30.90;13.20;;;1.90;82.70;;;;;;5060856;28;20252;-73
2022/12/19 02:08:17;;;;;;;29.92;12.25;;;1.90;82.80;;;;;;5058993;28;20045;-73
2022/12/19 02:10:44;;;;;;;29.80;12.60;;;1.90;82.90;;;;;;5063337;28;20056;-73
2022/12/19 02:13:11;;;;;;;26.70;10.65;;;2.00;83.20;;;;;;5047025;28;20060;-73
2022/12/19 02:15:50;;;;;;;28.33;12.17;;;2.00;83.20;;;;;;5060294;28;20053;-73
2022/12/19 02:18:30;;;;;;;27.67;13.02;;;2.00;83.40;;;;;;5049416;28;20741;-73
2022/12/19 02:21:25;;;;;;;29.50;11.80;;;2.00;83.50;;;;;;5050422;28;20045;-73
2022/12/19 02:24:31;;;;;;;29.58;12.63;;;2.10;84.00;;;;;;5044932;28;20080;-73
2022/12/19 02:27:05;;;;;;;33.45;14.00;;;2.10;84.10;;;;;;5044791;28;20049;-73
2022/12/19 02:30:05;;;;;;;30.00;12.00;;;2.10;84.40;;;;;;5040737;28;20049;-73
2022/12/19 02:32:48;;;;;;;30.42;14.30;;;2.10;84.50;;;;;;5062976;28;20304;-73
2022/12/19 02:35:25;;;;;;;30.70;12.77;;;2.00;84.50;;;;;;5041599;28;20057;-73
2022/12/19 02:37:58;;;;;;;25.95;10.45;;;2.00;84.50;;;;;;5063813;28;20057;-73
2022/12/19 02:40:29;;;;;;;29.88;12.82;;;2.00;84.60;;;;;;5070086;28;20045;-73
2022/12/19 02:42:59;;;;;;;31.90;12.83;;;2.00;84.70;;;;;;5050053;28;20041;-73
2022/12/19 02:45:31;;;;;;;30.88;11.57;;;2.00;84.80;;;;;;5058013;28;20264;-73
2022/12/19 02:48:03;;;;;;;29.20;12.05;;;2.00;85.10;;;;;;5066350;28;20912;-73
2022/12/19 02:50:39;;;;;;;29.45;12.32;;;2.00;85.10;;;;;;5067361;28;20656;-73
2022/12/19 02:53:09;;;;;;;24.70;8.55;;;2.00;85.40;;;;;;5066531;28;20503;-73
2022/12/19 02:55:44;;;;;;;21.80;9.90;;;2.10;85.80;;;;;;5061674;28;20049;-73
2022/12/19 02:58:38;;;;;;;26.02;10.43;;;2.10;85.70;;;;;;5063342;28;20259;-73
2022/12/19 03:01:15;;;;;;;27.42;10.88;;;2.10;85.80;;;;;;5046383;28;20049;-73
2022/12/19 03:03:51;;;;;;;31.30;13.32;;;2.10;85.80;;;;;;5066038;28;20192;-73
2022/12/19 03:06:26;;;;;;;31.45;13.43;;;2.10;85.80;;;;;;5056209;28;20132;-73
2022/12/19 03:09:01;;;;;;;30.80;13.37;;;2.10;85.90;;;;;;5057171;28;20056;-73
2022/12/19 03:11:34;;;;;;;26.50;11.23;;;2.10;86.00;;;;;;5065529;28;20287;-73
2022/12/19 03:14:06;;;;;;;29.95;12.13;;;2.10;86.20;;;;;;5070144;28;20049;-73
2022/12/19 03:16:35;;;;;;;28.80;13.40;;;2.20;86.20;;;;;;5067779;28;20057;-74
2022/12/19 03:19:04;;;;;;;31.60;12.57;;;2.20;86.20;;;;;;5051095;28;20061;-73
2022/12/19 03:21:35;;;;;;;27.67;13.40;;;2.20;86.40;;;;;;5069707;28;20045;-73
2022/12/19 03:24:04;;;;;;;37.08;17.15;;;2.20;86.60;;;;;;5064001;28;20399;-73
2022/12/19 03:26:37;;;;;;;29.27;13.88;;;2.20;86.60;;;;;;5069167;28;20048;-73
2022/12/19 03:29:10;;;;;;;33.75;14.55;;;2.20;86.50;;;;;;5069873;28;20168;-73
2022/12/19 03:31:39;;;;;;;26.45;11.32;;;2.30;86.80;;;;;;5069061;28;20473;-73
2022/12/19 03:34:13;;;;;;;33.33;14.23;;;2.30;87.20;;;;;;5071169;28;20190;-73
2022/12/19 03:36:42;;;;;;;27.95;11.73;;;2.30;87.20;;;;;;5070950;28;20760;-73
2022/12/19 03:39:12;;;;;;;34.33;13.52;;;2.40;87.90;;;;;;5069777;28;20136;-72
2022/12/19 03:44:28;;;;;;;28.50;12.13;;;2.50;87.70;;;;;;5069238;28;20060;-73
2022/12/19 03:47:03;;;;;;;37.93;15.53;;;2.50;87.80;;;;;;5059249;28;20049;-74
2022/12/19 03:49:33;;;;;;;37.80;15.85;;;2.50;88.00;;;;;;5066908;28;21346;-73
2022/12/19 03:52:17;;;;;;;39.35;15.75;;;2.50;88.00;;;;;;5069293;28;20077;-73
2022/12/19 03:54:51;;;;;;;36.58;16.17;;;2.50;88.10;;;;;;5070487;28;20657;-73
2022/12/19 03:57:25;;;;;;;33.75;14.93;;;2.60;88.00;;;;;;5085690;28;20506;-73
2022/12/19 03:59:58;;;;;;;33.53;14.40;;;2.60;88.20;;;;;;5067599;28;20072;-73
2022/12/19 04:02:25;;;;;;;30.85;13.55;;;2.70;88.30;;;;;;5071072;28;20279;-73
2022/12/19 04:04:58;;;;;;;36.75;16.08;;;2.70;88.30;;;;;;5065892;28;20077;-73
2022/12/19 04:07:26;;;;;;;39.03;17.92;;;2.70;88.60;;;;;;5061475;28;20053;-73
2022/12/19 04:09:55;;;;;;;36.72;16.60;;;2.70;88.50;;;;;;5063409;28;20480;-73
2022/12/19 04:12:28;;;;;;;38.27;16.17;;;2.70;88.60;;;;;;5065442;28;20052;-73
2022/12/19 04:14:57;;;;;;;37.63;17.27;;;2.80;88.70;;;;;;5074569;28;20721;-73
2022/12/19 04:17:29;;;;;;;38.53;16.27;;;2.80;88.70;;;;;;5067065;28;20076;-73
2022/12/19 04:20:02;;;;;;;35.10;15.25;;;2.80;88.80;;;;;;5067957;28;20049;-73
2022/12/19 04:22:33;;;;;;;36.83;17.35;;;2.80;88.80;;;;;;5043154;28;20124;-73
2022/12/19 04:25:01;;;;;;;38.97;16.13;;;2.80;88.80;;;;;;5059750;28;20135;-73
2022/12/19 04:27:29;;;;;;;35.38;14.80;;;2.80;89.00;;;;;;5059042;28;20252;-73
2022/12/19 04:29:58;;;;;;;36.25;15.55;;;2.90;89.00;;;;;;5069187;27;20056;-73
2022/12/19 04:32:26;;;;;;;36.63;16.13;;;2.90;89.10;;;;;;5068805;28;20056;-73
2022/12/19 04:34:54;;;;;;;36.58;16.42;;;2.90;89.00;;;;;;5061267;28;20510;-73
2022/12/19 04:37:22;;;;;;;36.27;15.97;;;2.90;89.00;;;;;;5067664;28;20061;-73
2022/12/19 04:39:53;;;;;;;40.53;16.40;;;2.90;89.00;;;;;;5067819;28;20435;-73
2022/12/19 04:42:19;;;;;;;37.38;17.25;;;2.90;89.00;;;;;;5044489;28;20475;-73
2022/12/19 04:44:49;;;;;;;38.00;17.27;;;2.90;89.00;;;;;;5062225;28;20055;-73
2022/12/19 04:47:16;;;;;;;32.75;15.15;;;3.00;89.50;;;;;;5053734;28;20049;-73
2022/12/19 04:49:43;;;;;;;37.27;17.47;;;3.00;89.30;;;;;;5060564;28;20560;-73
2022/12/19 04:52:13;;;;;;;28.52;13.13;;;3.00;89.40;;;;;;5068650;28;20272;-73
2022/12/19 04:54:41;;;;;;;34.78;14.43;;;3.10;89.40;;;;;;5057870;28;20046;-73
2022/12/19 04:57:08;;;;;;;31.75;14.43;;;3.10;89.50;;;;;;5069712;28;20064;-74
2022/12/19 04:59:36;;;;;;;38.33;16.67;;;3.10;89.70;;;;;;5068942;28;20387;-73
2022/12/19 05:02:03;;;;;;;35.03;16.40;;;3.10;89.60;;;;;;5069447;28;20055;-73
2022/12/19 05:04:30;;;;;;;30.40;12.93;;;3.10;89.60;;;;;;5068458;28;20272;-73
2022/12/19 05:06:57;;;;;;;34.90;16.10;;;3.20;89.80;;;;;;5068470;28;20049;-73
2022/12/19 05:09:24;;;;;;;25.95;11.07;;;3.30;89.90;;;;;;5061389;28;20519;-73
2022/12/19 05:11:52;;;;;;;33.92;15.05;;;3.30;89.80;;;;;;5064689;28;21016;-73
2022/12/19 05:14:19;;;;;;;30.10;12.57;;;3.30;89.70;;;;;;5063088;28;20081;-73
2022/12/19 05:16:46;;;;;;;26.92;12.13;;;3.30;89.70;;;;;;5066276;28;20670;-73
2022/12/19 05:19:13;;;;;;;32.20;14.52;;;3.30;89.80;;;;;;5065754;28;20080;-73
2022/12/19 05:21:41;;;;;;;32.03;16.05;;;3.30;89.90;;;;;;5069060;28;20520;-73
2022/12/19 05:24:11;;;;;;;32.95;14.57;;;3.30;90.00;;;;;;5069560;28;20080;-74
2022/12/19 05:26:38;;;;;;;26.57;12.17;;;3.30;90.00;;;;;;5050860;28;20136;-73
2022/12/19 05:29:07;;;;;;;28.45;13.75;;;3.30;90.00;;;;;;5051516;28;20302;-73
2022/12/19 05:31:35;;;;;;;31.25;14.98;;;3.40;90.00;;;;;;5068105;28;20055;-73
2022/12/19 05:34:02;;;;;;;33.33;15.50;;;3.50;90.20;;;;;;5061605;28;20103;-73
2022/12/19 05:36:30;;;;;;;23.35;10.70;;;3.50;90.20;;;;;;5068066;28;20119;-73
2022/12/19 05:38:57;;;;;;;26.87;13.03;;;3.50;90.20;;;;;;5067469;28;20128;-73
2022/12/19 05:41:25;;;;;;;33.10;15.90;;;3.50;90.40;;;;;;5068922;28;20721;-73
2022/12/19 05:43:54;;;;;;;32.47;15.82;;;3.50;90.70;;;;;;5067864;28;20080;-73
2022/12/19 05:46:23;;;;;;;26.80;12.15;;;3.50;90.70;;;;;;5054164;28;20052;-73
2022/12/19 05:48:50;;;;;;;29.65;14.52;;;3.60;90.70;;;;;;5060173;28;20041;-73
2022/12/19 05:51:17;;;;;;;22.10;9.87;;;3.60;90.90;;;;;;5063035;28;20132;-73
2022/12/19 05:53:44;;;;;;;25.25;11.73;;;3.60;91.00;;;;;;5068613;28;20283;-73
2022/12/19 05:56:12;;;;;;;20.50;10.20;;;3.70;90.90;;;;;;5068653;28;20554;-73
2022/12/19 05:58:41;;;;;;;19.30;7.90;;;3.70;90.90;;;;;;5057556;28;20073;-73
2022/12/19 06:01:09;;;;;;;15.85;7.18;;;3.70;91.00;;;;;;5069314;28;20127;-73
2022/12/19 06:03:39;;;;;;;26.77;12.47;;;3.80;91.10;;;;;;5066374;28;20045;-73
2022/12/19 06:06:09;;;;;;;20.73;8.60;;;3.90;91.20;;;;;;5067608;28;20260;-73
2022/12/19 06:08:36;;;;;;;19.85;8.98;;;3.90;91.20;;;;;;5067093;28;20486;-73
2022/12/19 06:11:05;;;;;;;23.27;10.70;;;3.90;91.20;;;;;;5065795;28;20045;-74
2022/12/19 06:13:33;;;;;;;23.35;11.05;;;3.90;91.10;;;;;;5063636;28;20049;-73
2022/12/19 06:16:03;;;;;;;29.73;14.80;;;4.00;91.20;;;;;;5082628;28;20065;-73
2022/12/19 06:18:31;;;;;;;21.48;10.50;;;4.00;91.30;;;;;;5065060;28;20236;-73
2022/12/19 06:21:01;;;;;;;23.38;11.07;;;4.10;91.50;;;;;;5065328;28;20064;-73
2022/12/19 06:23:30;;;;;;;20.92;8.57;;;4.10;91.40;;;;;;5066937;28;20136;-73
2022/12/19 06:25:58;;;;;;;20.70;9.75;;;4.10;91.50;;;;;;5057695;28;20049;-73
2022/12/19 06:28:26;;;;;;;16.03;8.33;;;4.20;91.40;;;;;;5067211;28;20139;-73
2022/12/19 06:30:55;;;;;;;20.42;10.80;;;4.20;91.60;;;;;;5064236;28;20390;-73
2022/12/19 06:33:23;;;;;;;16.08;7.60;;;4.30;91.60;;;;;;5063892;28;20059;-73
2022/12/19 06:35:58;;;;;;;24.95;12.30;;;4.30;91.70;;;;;;5066007;28;20518;-73
2022/12/19 06:38:27;;;;;;;15.63;6.85;;;4.30;91.60;;;;;;5057421;28;20058;-73
2022/12/19 06:43:45;;;;;;;21.27;9.60;;;4.40;91.40;;;;;;5066849;28;20770;-73
2022/12/19 06:46:12;;;;;;;19.15;9.32;;;4.40;91.50;;;;;;5066933;28;20083;-73
2022/12/19 06:48:39;;;;;;;20.80;9.45;;;4.40;91.40;;;;;;5049956;28;20839;-73
2022/12/19 06:51:06;;;;;;;19.25;10.02;;;4.40;91.50;;;;;;5062616;28;20050;-73
2022/12/19 06:53:35;;;;;;;17.73;9.13;;;4.50;91.50;;;;;;5066229;28;20053;-73
2022/12/19 06:56:03;;;;;;;19.88;9.63;;;4.50;91.50;;;;;;5067740;28;20248;-73
2022/12/19 06:58:30;;;;;;;15.05;7.65;;;4.50;91.60;;;;;;5063842;28;20057;-73
2022/12/19 07:00:57;;;;;;;18.42;8.57;;;4.50;91.60;;;;;;5067470;28;20053;-73
2022/12/19 07:03:35;;;;;;;20.00;9.73;;;4.50;91.70;;;;;;5061496;28;20053;-73
2022/12/19 07:06:02;;;;;;;18.90;8.30;;;4.50;91.70;;;;;;5063425;28;20462;-73
2022/12/19 07:08:29;;;;;;;21.17;10.52;;;4.50;91.60;;;;;;5023269;27;20274;-73
2022/12/19 07:10:58;;;;;;;19.58;9.38;;;4.50;91.70;;;;;;5060850;28;20050;-73
2022/12/19 07:13:26;;;;;;;14.70;7.47;;;4.50;91.70;;;;;;5062628;28;20152;-73
2022/12/19 07:15:56;;;;;;;17.13;9.65;;;4.70;91.90;;;;;;5061416;28;20056;-73
2022/12/19 07:18:24;;;;;;;15.63;7.93;;;4.70;91.80;;;;;;5061681;28;20726;-73
2022/12/19 07:20:51;;;;;;;21.08;10.73;;;4.70;91.80;;;;;;5061649;28;20336;-73
2022/12/19 07:23:21;;;;;;;15.93;8.05;;;4.70;91.80;;;;;;5067948;28;20161;-73
2022/12/19 07:25:48;;;;;;;18.70;9.95;;;4.70;91.90;;;;;;5068874;28;20103;-73
2022/12/19 07:28:17;;;;;;;18.75;9.55;;;4.70;91.90;;;;;;5070644;28;20168;-73
2022/12/19 07:30:44;;;;;;;18.17;8.83;;;4.70;91.80;;;;;;5069801;28;20048;-73
2022/12/19 07:33:11;;;;;;;18.80;10.85;;;4.80;91.90;;;;;;5064157;28;20737;-73
2022/12/19 07:35:38;;;;;;;21.33;11.25;;;4.80;92.00;;;;;;5069487;28;20045;-73
2022/12/19 07:38:06;;;;;;;18.63;10.77;;;4.80;92.00;;;;;;5061596;28;20055;-73
2022/12/19 07:40:34;;;;;;;19.95;10.45;;;4.90;92.00;;;;;;5068683;28;20138;-73
2022/12/19 07:43:02;;;;;;;16.23;8.07;;;4.90;91.90;;;;;;5067171;28;20135;-73
2022/12/19 07:45:31;;;;;;;16.98;9.25;;;4.90;92.00;;;;;;5066704;28;20296;-73
2022/12/19 07:48:00;;;;;;;15.93;8.25;;;4.90;92.00;;;;;;5065459;28;20053;-73
2022/12/19 07:50:28;;;;;;;18.05;9.30;;;4.90;92.10;;;;;;5063098;28;20049;-73
2022/12/19 07:52:55;;;;;;;10.98;5.45;;;5.00;92.20;;;;;;5067989;28;20148;-73
2022/12/19 07:55:23;;;;;;;16.57;8.80;;;5.00;92.20;;;;;;5068280;28;20060;-73
2022/12/19 07:57:50;;;;;;;18.17;9.95;;;5.00;92.20;;;;;;5068134;28;20291;-73
2022/12/19 08:00:17;;;;;;;15.10;8.48;;;5.00;92.30;;;;;;5066573;28;20053;-73
2022/12/19 08:02:46;;;;;;;17.92;10.30;;;5.00;92.20;;;;;;5070436;28;20579;-73
2022/12/19 08:05:13;;;;;;;15.88;8.57;;;5.00;92.50;;;;;;5069724;28;20636;-73
2022/12/19 08:07:40;;;;;;;17.90;8.77;;;5.10;92.40;;;;;;5052061;28;20128;-73
2022/12/19 08:10:10;;;;;;;12.95;6.15;;;5.10;92.40;;;;;;5067324;28;20248;-72
2022/12/19 08:12:37;;;;;;;16.70;9.85;;;5.10;92.50;;;;;;5071250;28;20729;-72
2022/12/19 08:15:06;;;;;;;18.67;10.85;;;5.10;92.50;;;;;;5044279;28;20049;-72
2022/12/19 08:17:32;;;;;;;15.02;8.15;;;5.20;92.60;;;;;;5068569;28;20049;-72
2022/12/19 08:20:01;;;;;;;15.30;8.47;;;5.20;92.50;;;;;;5046177;28;20045;-72
2022/12/19 08:22:30;;;;;;;14.35;7.50;;;5.20;92.60;;;;;;5067531;28;20291;-73
2022/12/19 08:24:58;;;;;;;15.00;7.60;;;5.30;92.60;;;;;;5054641;28;20422;-73
2022/12/19 08:27:25;;;;;;;12.90;6.82;;;5.30;92.70;;;;;;5059182;28;20545;-73
2022/12/19 08:29:52;;;;;;;13.98;7.65;;;5.30;92.80;;;;;;5069130;28;20864;-73
2022/12/19 08:32:21;;;;;;;14.73;6.90;;;5.30;92.70;;;;;;5067950;28;20136;-72
2022/12/19 08:34:48;;;;;;;14.20;7.30;;;5.30;92.70;;;;;;5051934;28;20343;-72
2022/12/19 08:37:16;;;;;;;14.90;8.30;;;5.30;92.70;;;;;;5052325;28;20045;-73
2022/12/19 08:39:43;;;;;;;15.10;8.10;;;5.40;92.80;;;;;;5068339;28;20095;-72
2022/12/19 08:42:11;;;;;;;13.15;6.47;;;5.40;92.80;;;;;;5084971;28;20049;-74
2022/12/19 08:44:38;;;;;;;14.80;7.57;;;5.50;92.90;;;;;;5070358;28;20634;-73
2022/12/19 08:47:05;;;;;;;12.88;7.88;;;5.50;92.90;;;;;;5068139;28;20263;-73
2022/12/19 08:49:32;;;;;;;13.82;6.75;;;5.50;92.90;;;;;;5067190;28;20049;-73
2022/12/19 08:52:03;;;;;;;13.68;7.03;;;5.50;92.90;;;;;;5060593;28;20561;-73
2022/12/19 08:54:31;;;;;;;14.52;8.27;;;5.50;93.00;;;;;;5065415;28;20079;-73
2022/12/19 08:56:58;;;;;;;15.17;7.90;;;5.60;93.10;;;;;;5066510;28;20060;-73
2022/12/19 08:59:25;;;;;;;14.18;7.13;;;5.60;93.00;;;;;;5067780;28;20305;-74
2022/12/19 09:01:52;;;;;;;12.98;6.38;;;5.60;93.00;;;;;;5066928;28;20140;-73
2022/12/19 09:04:19;;;;;;;14.90;8.68;;;5.60;93.10;;;;;;5060208;28;20562;-73
2022/12/19 09:06:46;;;;;;;14.73;8.20;;;5.70;93.20;;;;;;5063126;28;20049;-73
2022/12/19 09:09:13;;;;;;;16.80;9.30;;;5.70;93.20;;;;;;5062785;28;20048;-73
2022/12/19 09:11:41;;;;;;;16.00;9.15;;;5.70;93.20;;;;;;5054654;28;20280;-74
2022/12/19 09:14:08;;;;;;;15.02;8.43;;;5.70;93.30;;;;;;5062564;28;20053;-72
2022/12/19 09:16:36;;;;;;;15.88;9.05;;;5.80;93.30;;;;;;5064682;28;20053;-73
2022/12/19 09:19:03;;;;;;;14.68;8.30;;;5.80;93.40;;;;;;5063952;28;20145;-73
2022/12/19 09:21:31;;;;;;;13.50;7.20;;;5.90;93.40;;;;;;5003787;28;20056;-73
2022/12/19 09:24:00;;;;;;;13.05;7.30;;;5.90;93.50;;;;;;5052142;28;20344;-74
2022/12/19 09:26:27;;;;;;;14.45;7.97;;;5.90;93.60;;;;;;5065972;28;20057;-73
2022/12/19 09:28:55;;;;;;;18.17;10.63;;;6.00;93.50;;;;;;5061811;28;20056;-73
2022/12/19 09:31:24;;;;;;;17.98;10.73;;;6.00;93.60;;;;;;5071578;28;21332;-73
2022/12/19 09:33:53;;;;;;;15.83;8.40;;;6.00;93.60;;;;;;5062074;28;20059;-73
2022/12/19 09:36:23;;;;;;;19.40;10.38;;;6.10;93.60;;;;;;5059236;28;20824;-73
2022/12/19 09:38:50;;;;;;;19.10;10.88;;;6.10;93.60;;;;;;5056378;28;20569;-73
2022/12/19 09:41:41;;;;;;;17.67;9.52;;;6.10;93.70;;;;;;5055907;28;20045;-73
2022/12/19 09:44:23;;;;;;;18.60;10.27;;;6.20;93.70;;;;;;5065000;28;20124;-73
2022/12/19 09:46:53;;;;;;;17.33;8.70;;;6.20;93.70;;;;;;5066958;28;20506;-73
2022/12/19 09:49:24;;;;;;;21.30;12.13;;;6.30;93.70;;;;;;5067059;28;20251;-73
2022/12/19 09:51:58;;;;;;;15.80;8.07;;;6.30;93.80;;;;;;5060218;28;20048;-73
2022/12/19 09:54:32;;;;;;;19.15;10.20;;;6.40;93.70;;;;;;5049139;28;20048;-73
2022/12/19 09:57:04;;;;;;;19.17;10.98;;;6.40;93.90;;;;;;5066020;28;20041;-73
2022/12/19 09:59:40;;;;;;;16.33;9.57;;;6.50;93.80;;;;;;5058384;28;20182;-73
2022/12/19 10:02:26;;;;;;;18.77;8.90;;;6.50;93.80;;;;;;5067485;28;20271;-73
2022/12/19 10:05:02;;;;;;;19.58;11.13;;;6.50;93.80;;;;;;5061217;28;20072;-73
2022/12/19 10:07:29;;;;;;;19.60;9.57;;;6.50;93.80;;;;;;5048819;28;20052;-73
2022/12/19 10:09:57;;;;;;;15.90;9.38;;;6.60;93.90;;;;;;5054959;28;20540;-73
2022/12/19 10:12:43;;;;;;;15.73;7.87;;;6.60;93.90;;;;;;5059264;28;20127;-73
2022/12/19 10:15:23;;;;;;;16.50;8.88;;;6.70;93.90;;;;;;5062875;28;20248;-73
2022/12/19 10:18:05;;;;;;;17.98;8.68;;;6.70;93.90;;;;;;5049683;28;20045;-73
2022/12/19 10:20:35;;;;;;;16.85;8.32;;;6.70;93.90;;;;;;5066043;28;20056;-74
2022/12/19 10:23:19;;;;;;;17.23;9.38;;;6.80;93.90;;;;;;5065373;28;20049;-71
2022/12/19 10:25:59;;;;;;;14.90;8.20;;;6.80;93.90;;;;;;5059749;28;20045;-71
2022/12/19 10:28:48;;;;;;;15.52;7.97;;;6.80;93.90;;;;;;5064141;28;20853;-71
2022/12/19 10:31:21;;;;;;;14.85;6.78;;;6.80;93.90;;;;;;5045742;28;20060;-71
2022/12/19 10:33:55;;;;;;;16.65;9.20;;;6.90;93.90;;;;;;5065324;28;20048;-71
2022/12/19 10:36:23;;;;;;;16.25;8.38;;;6.90;93.80;;;;;;5063484;28;20060;-72
2022/12/19 10:38:58;;;;;;;14.23;7.77;;;6.90;93.80;;;;;;5064357;28;20045;-72
2022/12/19 10:41:32;;;;;;;15.32;7.90;;;7.00;93.90;;;;;;5067542;28;20259;-72
2022/12/19 10:44:04;;;;;;;14.32;7.65;;;7.00;93.90;;;;;;5067302;28;20107;-71
2022/12/19 10:46:41;;;;;;;14.20;7.90;;;7.00;93.90;;;;;;5068322;28;20099;-71
2022/12/19 10:49:15;;;;;;;13.38;8.02;;;7.00;94.00;;;;;;5066255;28;20104;-71
2022/12/19 10:51:52;;;;;;;17.37;9.40;;;7.10;94.00;;;;;;5065618;28;20045;-72
2022/12/19 10:54:20;;;;;;;12.68;6.95;;;7.10;94.00;;;;;;5065142;28;20434;-72
2022/12/19 10:56:47;;;;;;;12.43;6.72;;;7.20;94.00;;;;;;5059427;28;20054;-72
2022/12/19 10:59:16;;;;;;;15.18;8.50;;;7.20;94.00;;;;;;5065076;28;20052;-72
2022/12/19 11:01:46;;;;;;;14.45;8.27;;;7.20;94.00;;;;;;5058937;28;20049;-73
2022/12/19 11:04:26;;;;;;;12.40;6.47;;;7.40;94.10;;;;;;5055208;28;20057;-72
2022/12/19 11:07:05;;;;;;;12.75;7.35;;;7.40;93.90;;;;;;5061611;28;20247;-72
2022/12/19 11:09:38;;;;;;;13.15;7.95;;;7.40;93.90;;;;;;5047109;28;20045;-72
2022/12/19 11:12:13;;;;;;;13.10;7.43;;;7.50;93.90;;;;;;5065176;28;20049;-72
2022/12/19 11:14:44;;;;;;;14.15;8.57;;;7.50;93.90;;;;;;5061368;28;20534;-72
2022/12/19 11:17:36;;;;;;;12.37;7.73;;;7.50;93.90;;;;;;5069721;28;20053;-72
2022/12/19 11:20:12;;;;;;;9.52;5.60;;;7.50;93.70;;;;;;5061321;28;20411;-72
2022/12/19 11:22:45;;;;;;;12.65;7.78;;;7.50;93.70;;;;;;5065492;28;20049;-72
2022/12/19 11:25:18;;;;;;;13.57;8.65;;;7.60;93.60;;;;;;5062166;28;20060;-72
2022/12/19 11:27:48;;;;;;;12.95;7.63;;;7.60;93.60;;;;;;5067351;28;20052;-72
2022/12/19 11:30:22;;;;;;;13.30;7.93;;;7.60;93.50;;;;;;5069546;28;20041;-72
2022/12/19 11:33:08;;;;;;;11.75;5.60;;;7.60;93.60;;;;;;5064831;28;20252;-72
2022/12/19 11:35:48;;;;;;;13.65;7.90;;;7.70;93.60;;;;;;5070676;28;20132;-73
2022/12/19 11:38:18;;;;;;;11.05;7.10;;;7.80;93.50;;;;;;5085939;28;20057;-71
2022/12/19 11:40:48;;;;;;;11.57;7.35;;;7.80;93.50;;;;;;5055335;28;20128;-71
2022/12/19 11:43:21;;;;;;;11.40;6.20;;;7.80;93.40;;;;;;5063596;28;20061;-71
2022/12/19 11:45:56;;;;;;;11.43;6.53;;;7.80;93.40;;;;;;5069629;28;20288;-71
2022/12/19 11:48:37;;;;;;;11.48;7.40;;;7.80;93.40;;;;;;5067775;28;20052;-70
2022/12/19 11:51:12;;;;;;;11.15;7.70;;;7.90;93.30;;;;;;5067879;28;20049;-71
2022/12/19 11:53:49;;;;;;;12.18;6.90;;;7.90;93.30;;;;;;5067779;28;20059;-71
2022/12/19 11:56:20;;;;;;;13.33;6.73;;;7.90;93.20;;;;;;5068993;28;20151;-71
2022/12/19 11:58:51;;;;;;;14.52;7.97;;;7.90;93.30;;;;;;5065303;28;20273;-71
2022/12/19 12:01:29;;;;;;;12.35;7.28;;;8.00;93.30;;;;;;5052032;28;20471;-71
2022/12/19 12:04:28;;;;;;;12.20;7.68;;;8.00;93.20;;;;;;5068701;28;20576;-71
2022/12/19 12:06:56;;;;;;;12.60;6.88;;;8.00;93.20;;;;;;5046253;28;20610;-71
2022/12/19 12:09:31;;;;;;;10.70;6.00;;;8.00;93.30;;;;;;5066440;28;20053;-71
2022/12/19 12:12:12;;;;;;;11.93;5.38;;;8.00;93.00;;;;;;5069365;28;20272;-73
2022/12/19 12:14:50;;;;;;;9.70;5.60;;;8.00;93.00;;;;;;5065056;28;20132;-71
2022/12/19 12:17:35;;;;;;;10.20;5.30;;;8.00;93.00;;;;;;5064367;28;20100;-71
2022/12/19 12:20:21;;;;;;;10.85;6.00;;;8.00;93.00;;;;;;5064963;28;20534;-71
2022/12/19 12:23:08;;;;;;;11.00;6.27;;;8.00;93.10;;;;;;5084041;28;20130;-71
2022/12/19 12:25:59;;;;;;;11.05;6.47;;;8.00;93.00;;;;;;5070006;28;20263;-71
2022/12/19 12:28:49;;;;;;;10.13;6.15;;;8.00;93.00;;;;;;5067432;28;20103;-71
2022/12/19 12:31:31;;;;;;;11.90;7.55;;;8.00;93.00;;;;;;5068505;28;20057;-71
2022/12/19 12:34:06;;;;;;;10.48;6.25;;;8.00;93.00;;;;;;5064270;28;20052;-71
2022/12/19 12:36:43;;;;;;;10.33;5.67;;;8.10;92.90;;;;;;5071785;28;20057;-71
2022/12/19 12:39:15;;;;;;;9.95;5.55;;;8.10;92.80;;;;;;5068431;28;21225;-72
2022/12/19 12:42:04;;;;;;;12.88;6.93;;;8.10;92.70;;;;;;5061005;28;20144;-71
2022/12/19 12:44:35;;;;;;;11.90;6.40;;;8.10;92.70;;;;;;5069269;28;20134;-71
2022/12/19 12:47:09;;;;;;;11.45;6.95;;;8.10;92.60;;;;;;5069923;28;20052;-70
2022/12/19 12:49:41;;;;;;;10.90;6.53;;;8.10;92.60;;;;;;5069662;28;20059;-71
2022/12/19 12:52:16;;;;;;;11.60;6.45;;;8.10;92.60;;;;;;5067731;28;20252;-71
2022/12/19 12:54:45;;;;;;;11.35;7.30;;;8.10;92.60;;;;;;5055313;28;20883;-70
2022/12/19 12:57:20;;;;;;;9.93;5.90;;;8.20;92.50;;;;;;5039852;28;20045;-71
2022/12/19 12:59:57;;;;;;;13.02;7.57;;;8.20;92.50;;;;;;5062451;28;20053;-71
2022/12/19 13:02:25;;;;;;;13.63;6.63;;;8.20;92.50;;;;;;5064263;28;20135;-71
2022/12/19 13:04:58;;;;;;;10.75;6.05;;;8.20;92.50;;;;;;5062403;28;20323;-71
2022/12/19 13:07:34;;;;;;;13.80;6.63;;;8.20;92.40;;;;;;5065928;28;23484;-71
2022/12/19 13:10:22;;;;;;;11.45;7.35;;;8.30;92.60;;;;;;5071382;28;20151;-71